KGUS/GUS METAR and TAF weather

Enter ICAO airport designator
Station Type Date Time Source
KGUS METAR 2019/10/15 02:56 UTC NOAA

KGUS 150256Z AUTO 13003KT 10SM CLR 06/03 A3008 RMK AO2 SLP193 T00600028 51003 $


Station Type Date Time Source
KGUS Decoded METAR 2019/10/15 02:56 UTC NOAA

Grissom Air Force Base / Peru, IN, United States (KGUS) 40-39N 086-09W
Oct 14, 2019 - 10:56 PM EDT / 2019.10.15 0256 UTC
Wind: from the SE (130 degrees) at 3 MPH (3 KT):0
Visibility: 10 mile(s):0
Sky conditions: clear
Temperature: 42.8 F (6.0 C)
Dew Point: 37.0 F (2.8 C)
Relative Humidity: 79%
Pressure (altimeter): 30.08 in. Hg (1018 hPa)
Pressure tendency: 0.01 inches (0.3 hPa) higher than three hours ago
ob: KGUS 150256Z AUTO 13003KT 10SM CLR 06/03 A3008 RMK AO2 SLP193 T00600028 51003
cycle: 3

Station Type Date Time Source
KGUS TAF 2019/10/15 03:09 UTC NOAA

TAF KGUS 150300Z 1503/1609 VRB06KT 9999 SKC QNH3000INS
BECMG 1515/1516 16012G18KT 9999 SKC QNH2995INS
BECMG 1517/1518 19020G25KT 9999 SCT050 QNH2980INS
BECMG 1522/1523 22009KT 9999 OVC025 QNH2979INS
BECMG 1600/1601 23009KT 8000 -SHRA SCT005 BKN010 QNH2979INS
TEMPO 1601/1604 BKN005 BKN010
BECMG 1605/1606 29012KT 9999 NSW SCT025 QNH2978INS
BECMG 1608/1609 28009KT 9999 SCT025 QNH2978INS TX19/1518Z TN06/1510Z

Example: see airport list